Portada
METAR-TAF:

METAR-TAF

Aeroports :

Aeroport de Gran Canària

Gran Canària, Espanya

latitud: 27-56N, longitud: 015-23W, altitud: 23 m

Observació

L'informe es va fer fa 33 minuts, a les 16:00 UTC
Vent 25 kt del Nord
Temperatura 20°C
Humitat 64%
Pressió 1025 hPa
Visibilitat 10 km o més
Escasses núvols a una alçada de 2500 ft

METAR: GCLP 181600Z 01025KT 9999 FEW025 20/13 Q1025 NOSIG

Hora: 16:33 (16:33 UTC)

Pronòstic

L'informe es va fer fa 2 hores i 33 minuts, a les 14:00 UTC
Pronòstic vàlid del 18 a les 15 UTC al 19 a les 15 UTC
Vent 25 kt del Nord
Visibilitat 10 km o més
Núvols disperses a una alçada de 2500 ft
Probabilitat 30% :
Temporalment
l' 18 a les 15 UTC al 18 a les 21 UTC
Vent 24 kt del Nord amb ràfegues de 34 kt

TAF: GCLP 181400Z 1815/1915 01025KT 9999 SCT025 TX21/1914Z TN16/1906Z PROB30 TEMPO 1815/1821 01024G34KT

Observacions i pronòstics meteorològics de més de 4000 aeroports (METAR i TAF).

Les estacions disponibles són els punts grocs i vermells al mapa.

Posi el ratolí al punt desitjat per veure el nom de l'estació.

Feu clic per veure les observacions i els pronòstics meteorològics.

Per canviar el mapa: feu clic els botons verds amb una creu de color negre per apropar; al botó verd amb un guió per allunyar la imatge; o en les fletxes verdes per a mapes adjacents.


METAR-TAF: